createdAt,value
2019-01-20T00:01:10.713Z,0.20
2019-01-20T00:03:40.927Z,0.40
2019-01-20T00:06:10.186Z,0.40
2019-01-20T00:08:41.040Z,0.40
2019-01-20T00:11:16.749Z,0.47
2019-01-20T00:13:45.448Z,0.33
2019-01-20T00:16:20.090Z,0.40
2019-01-20T00:18:51.160Z,0.40
2019-01-20T00:21:28.507Z,0.30
2019-01-20T00:23:58.025Z,0.47
2019-01-20T00:26:27.366Z,0.30
2019-01-20T00:28:59.387Z,0.30
2019-01-20T00:31:32.639Z,0.50
2019-01-20T00:34:08.493Z,0.30
2019-01-20T00:36:38.179Z,0.30
2019-01-20T00:39:10.523Z,0.37
2019-01-20T00:41:40.004Z,0.40
2019-01-20T00:44:09.155Z,0.40
2019-01-20T00:46:39.221Z,0.40
2019-01-20T00:49:15.832Z,0.30
2019-01-20T00:51:48.405Z,0.30
2019-01-20T00:54:19.322Z,0.30
2019-01-20T00:56:49.613Z,0.30
2019-01-20T00:59:18.955Z,0.40
2019-01-20T01:01:48.148Z,0.20
2019-01-20T01:04:17.526Z,0.30
2019-01-20T01:06:47.046Z,0.20
2019-01-20T01:09:16.270Z,0.80
2019-01-20T01:11:45.838Z,0.40
2019-01-20T01:14:15.201Z,0.33
2019-01-20T01:16:44.391Z,0.50
2019-01-20T01:19:13.937Z,0.20
2019-01-20T01:21:44.979Z,0.50
2019-01-20T01:24:14.189Z,0.20
2019-01-20T01:26:43.395Z,0.40
2019-01-20T01:29:12.788Z,0.50
2019-01-20T01:31:41.984Z,0.40
2019-01-20T01:34:11.215Z,0.30
2019-01-20T01:36:40.536Z,0.20
2019-01-20T01:39:10.025Z,0.30
2019-01-20T01:41:39.409Z,0.30
2019-01-20T01:44:08.883Z,0.50
2019-01-20T01:46:38.109Z,0.30
2019-01-20T01:49:07.857Z,0.30
2019-01-20T01:51:37.292Z,0.20
2019-01-20T01:54:06.472Z,0.30
2019-01-20T01:56:35.680Z,0.17
2019-01-20T01:59:05.291Z,0.40
2019-01-20T02:01:34.490Z,0.30
2019-01-20T02:04:03.668Z,0.40
2019-01-20T02:06:33.027Z,0.20
2019-01-20T02:09:02.215Z,0.50
2019-01-20T02:11:31.408Z,0.30
2019-01-20T02:14:01.303Z,0.40
2019-01-20T02:16:30.600Z,0.30
2019-01-20T02:18:59.790Z,0.40
2019-01-20T02:21:29.120Z,0.40
2019-01-20T02:23:58.600Z,0.40
2019-01-20T02:26:27.789Z,0.37
2019-01-20T02:28:57.196Z,0.37
2019-01-20T02:31:26.597Z,0.50
2019-01-20T02:33:55.791Z,0.43
2019-01-20T02:36:25.301Z,0.50
2019-01-20T02:38:54.484Z,0.23
2019-01-20T02:41:23.690Z,0.27
2019-01-20T02:43:53.196Z,0.30
2019-01-20T02:46:22.390Z,0.47
2019-01-20T02:48:51.594Z,0.30
2019-01-20T02:51:21.102Z,0.57
2019-01-20T02:53:50.285Z,0.47
2019-01-20T02:56:19.480Z,0.30
2019-01-20T02:58:48.782Z,0.47
2019-01-20T03:01:17.990Z,0.30
2019-01-20T03:03:47.189Z,0.20
2019-01-20T03:06:16.817Z,0.30
2019-01-20T03:08:46.029Z,0.20
2019-01-20T03:11:15.218Z,0.30
2019-01-20T03:13:44.905Z,0.40
2019-01-20T03:16:14.099Z,0.40
2019-01-20T03:18:43.461Z,0.20
2019-01-20T03:21:12.904Z,0.60
2019-01-20T03:23:42.191Z,0.30
2019-01-20T03:26:11.589Z,0.30
2019-01-20T03:28:40.916Z,0.40
2019-01-20T03:31:10.107Z,0.47
2019-01-20T03:33:39.304Z,0.20
2019-01-20T03:36:08.647Z,0.37
2019-01-20T03:38:37.916Z,0.10
2019-01-20T03:41:07.107Z,0.27
2019-01-20T03:43:36.448Z,0.13
2019-01-20T03:46:05.743Z,0.40
2019-01-20T03:48:34.926Z,0.30
2019-01-20T03:51:04.610Z,0.23
2019-01-20T03:53:33.796Z,0.23
2019-01-20T03:56:03.294Z,0.97
2019-01-20T03:58:32.652Z,0.37
2019-01-20T04:01:01.855Z,0.40
2019-01-20T04:03:31.045Z,0.20
2019-01-20T04:06:00.511Z,0.30
2019-01-20T04:08:29.783Z,0.37
2019-01-20T04:10:58.977Z,0.30
2019-01-20T04:13:28.310Z,0.20
2019-01-20T04:15:57.613Z,0.30
2019-01-20T04:18:26.801Z,0.30
2019-01-20T04:20:56.300Z,0.47
2019-01-20T04:23:25.514Z,0.50
2019-01-20T04:25:54.735Z,0.30
2019-01-20T04:28:24.718Z,0.70
2019-01-20T04:30:53.907Z,0.20
2019-01-20T04:33:23.115Z,0.30
2019-01-20T04:35:52.624Z,0.40
2019-01-20T04:38:21.848Z,0.43
2019-01-20T04:40:51.034Z,0.30
2019-01-20T04:43:20.406Z,0.30
2019-01-20T04:45:49.605Z,0.30
2019-01-20T04:48:18.797Z,0.40
2019-01-20T04:50:48.127Z,0.20
2019-01-20T04:53:17.340Z,0.17
2019-01-20T04:55:46.527Z,0.40
2019-01-20T04:58:16.961Z,0.30
2019-01-20T05:00:46.338Z,0.27
2019-01-20T05:03:15.541Z,0.50
2019-01-20T05:05:44.890Z,0.20
2019-01-20T05:08:14.090Z,0.10
2019-01-20T05:10:43.686Z,0.30
2019-01-20T05:13:13.004Z,0.30
2019-01-20T05:15:42.227Z,0.20
2019-01-20T05:18:11.429Z,0.40
2019-01-20T05:20:40.748Z,0.40
2019-01-20T05:23:10.053Z,0.43
2019-01-20T05:25:39.244Z,0.23
2019-01-20T05:28:08.560Z,0.20
2019-01-20T05:30:37.752Z,0.40
2019-01-20T05:33:07.114Z,0.30
2019-01-20T05:35:36.834Z,0.37
2019-01-20T05:38:06.137Z,0.53
2019-01-20T05:40:35.346Z,0.40
2019-01-20T05:43:04.673Z,0.47
2019-01-20T05:45:33.879Z,0.37
2019-01-20T05:48:03.095Z,0.30
2019-01-20T05:50:32.639Z,0.47
2019-01-20T05:53:01.856Z,0.30
2019-01-20T05:55:31.071Z,0.20
2019-01-20T05:58:00.536Z,0.20
2019-01-20T06:00:33.118Z,0.40
2019-01-20T06:03:02.401Z,0.60
2019-01-20T06:05:31.659Z,0.30
2019-01-20T06:08:00.857Z,0.40
2019-01-20T06:10:30.325Z,0.30
2019-01-20T06:12:59.757Z,0.30
2019-01-20T06:15:28.979Z,0.40
2019-01-20T06:17:58.265Z,0.30
2019-01-20T06:20:27.723Z,0.20
2019-01-20T06:22:56.963Z,0.50
2019-01-20T06:25:26.336Z,0.27
2019-01-20T06:27:55.982Z,0.20
2019-01-20T06:30:29.839Z,0.30
2019-01-20T06:32:59.026Z,0.30
2019-01-20T06:35:28.746Z,0.57
2019-01-20T06:37:58.044Z,0.30
2019-01-20T06:40:27.230Z,0.30
2019-01-20T06:43:01.879Z,0.30
2019-01-20T06:45:27.468Z,0.50
2019-01-20T06:47:56.655Z,0.40
2019-01-20T06:50:25.976Z,0.30
2019-01-20T06:52:55.193Z,0.30
2019-01-20T06:55:24.402Z,1.33
2019-01-20T06:57:53.739Z,0.63
2019-01-20T07:00:24.104Z,0.50
2019-01-20T07:02:53.329Z,0.30
2019-01-20T07:05:22.702Z,0.37
2019-01-20T07:07:53.572Z,0.33
2019-01-20T07:10:22.773Z,0.23
2019-01-20T07:12:52.253Z,0.13
2019-01-20T07:15:23.280Z,0.20
2019-01-20T07:17:52.698Z,0.20
2019-01-20T07:20:22.455Z,0.30
2019-01-20T07:22:51.655Z,0.37
2019-01-20T07:25:20.952Z,0.50
2019-01-20T07:27:51.070Z,0.33
2019-01-20T07:30:22.437Z,0.30
2019-01-20T07:32:51.621Z,0.30
2019-01-20T07:35:21.157Z,0.30
2019-01-20T07:37:50.616Z,0.23
2019-01-20T07:40:22.427Z,0.20
2019-01-20T07:42:51.672Z,0.60
2019-01-20T07:45:20.860Z,0.30
2019-01-20T07:47:50.311Z,0.20
2019-01-20T07:50:24.890Z,0.40
2019-01-20T07:52:54.342Z,0.20
2019-01-20T07:55:23.536Z,0.60
2019-01-20T07:57:52.754Z,0.63
2019-01-20T08:00:23.973Z,0.47
2019-01-20T08:02:53.169Z,0.40
2019-01-20T08:05:22.519Z,0.30
2019-01-20T08:07:51.977Z,0.33
2019-01-20T08:10:26.599Z,0.43
2019-01-20T08:12:56.420Z,0.20
2019-01-20T08:15:25.622Z,0.20
2019-01-20T08:17:54.931Z,0.30
2019-01-20T08:20:24.728Z,0.40
2019-01-20T08:22:53.959Z,0.30
2019-01-20T08:25:23.202Z,0.30
2019-01-20T08:27:52.601Z,0.27
2019-01-20T08:30:23.993Z,0.20
2019-01-20T08:32:53.330Z,0.30
2019-01-20T08:35:22.524Z,0.50
2019-01-20T08:37:51.741Z,0.40
2019-01-20T08:40:26.494Z,0.47
2019-01-20T08:42:57.161Z,1.80
2019-01-20T08:45:54.610Z,0.40
2019-01-20T08:48:23.882Z,0.40
2019-01-20T08:50:53.159Z,0.43
2019-01-20T08:53:22.580Z,0.47
2019-01-20T08:55:51.801Z,0.47
2019-01-20T08:58:21.000Z,0.40
2019-01-20T09:00:50.524Z,0.57
2019-01-20T09:03:19.715Z,0.40
2019-01-20T09:05:48.940Z,0.30
2019-01-20T09:08:18.387Z,0.40
2019-01-20T09:10:47.585Z,0.50
2019-01-20T09:13:16.795Z,0.50
2019-01-20T09:15:46.172Z,0.50
2019-01-20T09:18:15.761Z,0.40
2019-01-20T09:20:44.960Z,0.50
2019-01-20T09:23:14.289Z,0.40
2019-01-20T09:25:43.498Z,0.70
2019-01-20T09:28:12.718Z,0.60
2019-01-20T09:30:42.255Z,0.30
2019-01-20T09:33:11.458Z,0.53
2019-01-20T09:35:40.681Z,0.40
2019-01-20T09:38:10.194Z,0.43
2019-01-20T09:40:39.405Z,0.70
2019-01-20T09:43:08.974Z,0.50
2019-01-20T09:45:40.875Z,0.40
2019-01-20T09:48:10.194Z,0.57
2019-01-20T09:50:39.391Z,0.37
2019-01-20T09:53:08.954Z,0.50
2019-01-20T09:55:38.538Z,0.60
2019-01-20T09:58:07.756Z,0.77
2019-01-20T10:00:37.180Z,0.57
2019-01-20T10:03:06.377Z,0.60
2019-01-20T10:05:35.620Z,0.50
2019-01-20T10:08:05.267Z,0.47
2019-01-20T10:10:34.516Z,0.50
2019-01-20T10:13:03.716Z,0.70
2019-01-20T10:15:33.024Z,0.70
2019-01-20T10:18:02.320Z,0.67
2019-01-20T10:20:32.397Z,0.57
2019-01-20T10:23:02.238Z,0.80
2019-01-20T10:25:31.452Z,0.63
2019-01-20T10:28:00.707Z,0.93
2019-01-20T10:30:39.004Z,0.80
2019-01-20T10:33:08.256Z,0.70
2019-01-20T10:36:02.598Z,1.20
2019-01-20T10:38:31.830Z,1.00
2019-01-20T10:41:01.046Z,1.00
2019-01-20T10:43:30.496Z,0.60
2019-01-20T10:46:00.857Z,0.40
2019-01-20T10:48:30.081Z,0.60
2019-01-20T10:50:59.627Z,0.67
2019-01-20T10:53:28.868Z,0.60
2019-01-20T10:55:58.086Z,0.57
2019-01-20T10:58:27.559Z,1.13
2019-01-20T11:00:56.776Z,0.60
2019-01-20T11:03:26.119Z,1.10
2019-01-20T11:05:55.449Z,1.00
2019-01-20T11:08:24.792Z,0.63
2019-01-20T11:10:53.994Z,0.70
2019-01-20T11:13:23.421Z,0.60
2019-01-20T11:15:52.618Z,0.60
2019-01-20T11:18:21.938Z,0.60
2019-01-20T11:20:51.271Z,0.60
2019-01-20T11:23:22.375Z,0.80
2019-01-20T11:25:51.565Z,0.77
2019-01-20T11:28:20.811Z,0.60
2019-01-20T11:30:50.110Z,0.60
2019-01-20T11:33:19.378Z,0.60
2019-01-20T11:35:48.739Z,0.90
2019-01-20T11:38:18.108Z,0.70
2019-01-20T11:40:47.330Z,0.53
2019-01-20T11:43:16.554Z,0.53
2019-01-20T11:45:46.372Z,0.37
2019-01-20T11:48:15.566Z,0.87
2019-01-20T11:50:44.864Z,0.60
2019-01-20T11:53:14.271Z,0.50
2019-01-20T11:55:43.577Z,0.63
2019-01-20T11:58:12.832Z,0.67
2019-01-20T12:00:42.320Z,0.50
2019-01-20T12:03:11.571Z,0.53
2019-01-20T12:05:43.320Z,0.80
2019-01-20T12:08:12.935Z,1.20
2019-01-20T12:10:42.172Z,0.73
2019-01-20T12:13:15.164Z,0.60
2019-01-20T12:15:44.403Z,0.50
2019-01-20T12:18:13.619Z,0.93
2019-01-20T12:20:43.218Z,0.73
2019-01-20T12:23:12.469Z,0.60
2019-01-20T12:25:41.756Z,0.60
2019-01-20T12:28:11.126Z,0.40
2019-01-20T12:30:40.579Z,0.83
2019-01-20T12:33:10.009Z,0.40
2019-01-20T12:35:39.436Z,0.70
2019-01-20T12:38:08.754Z,0.60
2019-01-20T12:40:46.580Z,0.57
2019-01-20T12:43:15.780Z,0.60
2019-01-20T12:45:45.176Z,0.53
2019-01-20T12:48:14.638Z,0.50
2019-01-20T12:50:43.925Z,1.07
2019-01-20T12:53:13.536Z,0.53
2019-01-20T12:55:43.154Z,0.50
2019-01-20T12:58:12.694Z,0.63
2019-01-20T13:00:42.044Z,0.60
2019-01-20T13:03:11.658Z,0.50
2019-01-20T13:05:40.862Z,0.87
2019-01-20T13:08:10.450Z,0.70
2019-01-20T13:10:40.480Z,0.87
2019-01-20T13:13:09.690Z,0.67
2019-01-20T13:15:38.897Z,0.90
2019-01-20T13:18:08.383Z,0.70
2019-01-20T13:20:39.385Z,1.03
2019-01-20T13:23:08.656Z,0.90
2019-01-20T13:25:38.124Z,0.80
2019-01-20T13:28:07.316Z,0.90
2019-01-20T13:30:36.515Z,0.73
2019-01-20T13:33:05.865Z,0.80
2019-01-20T13:35:35.062Z,0.90
2019-01-20T13:38:15.990Z,0.70
2019-01-20T13:41:00.529Z,0.70
2019-01-20T13:43:30.048Z,0.50
2019-01-20T13:45:59.283Z,1.00
2019-01-20T13:48:28.518Z,0.63
2019-01-20T13:50:58.361Z,0.73
2019-01-20T13:53:27.836Z,1.00
2019-01-20T13:56:01.117Z,1.00
2019-01-20T13:58:28.220Z,0.73
2019-01-20T14:00:57.491Z,0.60
2019-01-20T14:03:26.683Z,1.07
2019-01-20T14:05:56.015Z,0.87
2019-01-20T14:08:25.298Z,1.10
2019-01-20T14:10:54.590Z,0.77
2019-01-20T14:13:24.110Z,0.80
2019-01-20T14:15:56.147Z,0.60
2019-01-20T14:18:28.292Z,1.00
2019-01-20T14:21:01.399Z,0.80
2019-01-20T14:23:33.869Z,1.00
2019-01-20T14:26:06.132Z,0.80
2019-01-20T14:28:36.627Z,0.83
2019-01-20T14:31:07.819Z,0.70
2019-01-20T14:33:43.603Z,0.87
2019-01-20T14:36:15.825Z,0.90
2019-01-20T14:38:45.245Z,0.93
2019-01-20T14:41:14.751Z,0.90
2019-01-20T14:43:44.032Z,0.90
2019-01-20T14:46:34.912Z,0.80
2019-01-20T14:49:05.037Z,0.87
2019-01-20T14:51:34.311Z,0.90
2019-01-20T14:54:06.896Z,1.10
2019-01-20T14:56:41.352Z,1.10
2019-01-20T14:59:12.804Z,0.87
2019-01-20T15:01:44.399Z,0.77
2019-01-20T15:04:30.760Z,1.00
2019-01-20T15:07:03.490Z,1.07
2019-01-20T15:09:35.287Z,1.00
2019-01-20T15:12:10.873Z,1.10
2019-01-20T15:14:41.377Z,1.23
2019-01-20T15:17:10.847Z,0.87
2019-01-20T15:19:40.343Z,1.30
2019-01-20T15:22:10.449Z,0.90
2019-01-20T15:24:40.001Z,1.07
2019-01-20T15:27:10.426Z,0.70
2019-01-20T15:29:39.720Z,0.90
2019-01-20T15:32:08.926Z,1.30
2019-01-20T15:34:38.171Z,0.90
2019-01-20T15:37:09.434Z,0.90
2019-01-20T15:39:38.711Z,1.20
2019-01-20T15:42:08.078Z,0.83
2019-01-20T15:44:37.514Z,1.10
2019-01-20T15:47:07.817Z,0.97
2019-01-20T15:49:37.074Z,1.07
2019-01-20T15:52:06.539Z,1.00
2019-01-20T15:54:35.740Z,1.60
2019-01-20T15:57:05.143Z,1.43
2019-01-20T15:59:34.439Z,1.90
2019-01-20T16:02:03.942Z,1.57
2019-01-20T16:04:33.315Z,1.53
2019-01-20T16:07:02.603Z,1.90
2019-01-20T16:09:31.792Z,1.90
2019-01-20T16:12:01.042Z,1.70
2019-01-20T16:14:30.380Z,1.43
2019-01-20T16:17:00.519Z,2.03
2019-01-20T16:19:30.066Z,1.50
2019-01-20T16:21:59.448Z,1.40
2019-01-20T16:24:28.650Z,1.73
2019-01-20T16:27:00.986Z,1.40
2019-01-20T16:29:29.129Z,1.10
2019-01-20T16:31:58.411Z,1.83
2019-01-20T16:34:27.964Z,1.00
2019-01-20T16:36:57.398Z,1.30
2019-01-20T16:39:26.604Z,1.53
2019-01-20T16:41:57.704Z,1.30
2019-01-20T16:44:27.403Z,1.50
2019-01-20T16:46:56.624Z,1.60
2019-01-20T16:49:25.868Z,1.40
2019-01-20T16:51:55.548Z,1.10
2019-01-20T16:54:24.942Z,1.33
2019-01-20T16:56:54.402Z,1.10
2019-01-20T16:59:24.149Z,1.30
2019-01-20T17:01:54.638Z,1.23
2019-01-20T17:04:24.571Z,2.13
2019-01-20T17:06:53.898Z,1.60
2019-01-20T17:09:23.104Z,1.77
2019-01-20T17:11:55.501Z,1.90
2019-01-20T17:14:24.707Z,1.97
2019-01-20T17:16:54.054Z,1.97
2019-01-20T17:19:23.547Z,1.90
2019-01-20T17:21:52.765Z,2.37
2019-01-20T17:24:21.955Z,2.30
2019-01-20T17:26:51.373Z,2.40
2019-01-20T17:29:20.622Z,2.20
2019-01-20T17:31:49.834Z,2.13
2019-01-20T17:34:19.308Z,1.97
2019-01-20T17:36:48.510Z,2.27
2019-01-20T17:39:17.733Z,2.30
2019-01-20T17:41:47.089Z,2.30
2019-01-20T17:44:19.038Z,1.60
2019-01-20T17:46:48.502Z,2.30
2019-01-20T17:49:17.716Z,2.00
2019-01-20T17:51:46.913Z,1.90
2019-01-20T17:54:16.243Z,1.97
2019-01-20T17:56:47.609Z,2.27
2019-01-20T17:59:16.946Z,2.40
2019-01-20T18:01:46.141Z,2.17
2019-01-20T18:04:15.402Z,1.77
2019-01-20T18:06:44.789Z,1.80
2019-01-20T18:09:14.390Z,2.07
2019-01-20T18:11:43.688Z,1.80
2019-01-20T18:14:13.222Z,1.50
2019-01-20T18:16:42.416Z,1.70
2019-01-20T18:19:11.650Z,2.40
2019-01-20T18:21:40.951Z,1.83
2019-01-20T18:24:11.358Z,1.17
2019-01-20T18:26:40.575Z,1.93
2019-01-20T18:29:09.900Z,1.40
2019-01-20T18:31:39.136Z,1.70
2019-01-20T18:34:08.405Z,1.23
2019-01-20T18:36:38.018Z,1.70
2019-01-20T18:39:08.996Z,2.23
2019-01-20T18:41:38.311Z,1.70
2019-01-20T18:44:07.795Z,1.83
2019-01-20T18:46:36.987Z,1.77
2019-01-20T18:49:06.327Z,1.80
2019-01-20T18:51:36.532Z,2.00
2019-01-20T18:54:05.735Z,1.70
2019-01-20T18:56:34.977Z,1.90
2019-01-20T18:59:04.250Z,1.50
2019-01-20T19:01:33.441Z,1.70
2019-01-20T19:04:02.719Z,1.67
2019-01-20T19:06:32.098Z,1.70
2019-01-20T19:09:01.357Z,1.40
2019-01-20T19:11:30.667Z,2.90
2019-01-20T19:14:00.114Z,0.63
2019-01-20T19:16:29.290Z,1.83
2019-01-20T19:18:58.548Z,1.50
2019-01-20T19:21:29.543Z,1.47
2019-01-20T19:23:58.744Z,2.03
2019-01-20T19:26:28.058Z,1.60
2019-01-20T19:29:02.951Z,2.53
2019-01-20T19:31:29.469Z,2.00
2019-01-20T19:33:58.955Z,1.90
2019-01-20T19:36:28.181Z,1.77
2019-01-20T19:38:57.389Z,1.50
2019-01-20T19:41:26.751Z,1.73
2019-01-20T19:43:55.947Z,1.73
2019-01-20T19:46:25.144Z,1.47
2019-01-20T19:48:54.496Z,1.90
2019-01-20T19:51:23.895Z,1.50
2019-01-20T19:53:53.117Z,2.40
2019-01-20T19:56:23.998Z,1.90
2019-01-20T19:58:55.647Z,1.40
2019-01-20T20:01:30.802Z,1.60
2019-01-20T20:03:56.818Z,1.57
2019-01-20T20:06:36.901Z,1.50
2019-01-20T20:09:11.989Z,1.87
2019-01-20T20:11:41.762Z,2.13
2019-01-20T20:14:11.071Z,2.63
2019-01-20T20:16:41.506Z,2.67
2019-01-20T20:19:11.701Z,2.33
2019-01-20T20:21:41.374Z,2.30
2019-01-20T20:24:12.682Z,2.60
2019-01-20T20:26:44.836Z,2.50
2019-01-20T20:29:14.274Z,2.70
2019-01-20T20:31:43.573Z,3.77
2019-01-20T20:34:14.261Z,2.20
2019-01-20T20:36:43.491Z,2.27
2019-01-20T20:39:30.269Z,2.40
2019-01-20T20:42:01.948Z,2.47
2019-01-20T20:44:33.438Z,1.77
2019-01-20T20:47:03.869Z,2.37
2019-01-20T20:49:33.408Z,2.20
2019-01-20T20:52:14.361Z,2.20
2019-01-20T20:54:44.678Z,1.90
2019-01-20T20:57:13.986Z,3.43
2019-01-20T20:59:43.434Z,2.30
2019-01-20T21:02:14.563Z,2.93
2019-01-20T21:04:45.259Z,2.10
2019-01-20T21:07:16.365Z,1.40
2019-01-20T21:09:45.827Z,1.90
2019-01-20T21:12:15.028Z,1.77
2019-01-20T21:14:46.215Z,1.37
2019-01-20T21:17:17.401Z,1.60
2019-01-20T21:19:46.954Z,1.63
2019-01-20T21:22:17.834Z,1.67
2019-01-20T21:24:47.200Z,1.40
2019-01-20T21:27:19.117Z,1.90
2019-01-20T21:29:48.821Z,2.10
2019-01-20T21:32:22.220Z,2.10
2019-01-20T21:34:51.934Z,1.53
2019-01-20T21:37:21.301Z,1.40
2019-01-20T21:39:55.252Z,1.33
2019-01-20T21:42:24.715Z,1.87
2019-01-20T21:44:54.590Z,1.70
2019-01-20T21:47:24.635Z,1.87
2019-01-20T21:49:53.867Z,1.67
2019-01-20T21:52:28.025Z,1.90
2019-01-20T21:54:57.308Z,1.63
2019-01-20T21:57:26.478Z,2.10
2019-01-20T21:59:55.791Z,2.37
2019-01-20T22:02:25.013Z,1.93
2019-01-20T22:04:58.582Z,1.73
2019-01-20T22:07:29.121Z,1.70
2019-01-20T22:10:02.254Z,2.20
2019-01-20T22:12:39.434Z,1.93
2019-01-20T22:15:09.882Z,1.63
2019-01-20T22:17:39.415Z,1.70
2019-01-20T22:20:13.710Z,1.63
2019-01-20T22:22:45.612Z,1.70
2019-01-20T22:25:17.737Z,1.50
2019-01-20T22:27:49.773Z,1.50
2019-01-20T22:30:21.796Z,1.73
2019-01-20T22:32:59.704Z,1.73
2019-01-20T22:35:37.217Z,1.63
2019-01-20T22:38:08.736Z,1.50
2019-01-20T22:40:46.418Z,1.40
2019-01-20T22:43:21.183Z,1.30
2019-01-20T22:45:50.644Z,1.47
2019-01-20T22:48:23.994Z,1.47
2019-01-20T22:50:58.138Z,1.40
2019-01-20T22:53:27.631Z,1.23
2019-01-20T22:55:59.814Z,1.63
2019-01-20T22:58:30.248Z,1.80
2019-01-20T23:01:24.272Z,1.80
2019-01-20T23:03:55.097Z,1.40
2019-01-20T23:06:26.878Z,1.80
2019-01-20T23:08:58.144Z,1.67
2019-01-20T23:11:31.526Z,1.30
2019-01-20T23:14:06.565Z,1.40
2019-01-20T23:16:39.495Z,1.20
2019-01-20T23:19:10.639Z,1.20
2019-01-20T23:21:42.437Z,1.40
2019-01-20T23:24:11.647Z,1.40
2019-01-20T23:26:40.790Z,1.57
2019-01-20T23:29:11.567Z,1.23
2019-01-20T23:31:43.186Z,1.60
2019-01-20T23:34:12.690Z,1.50
2019-01-20T23:36:43.276Z,0.90
2019-01-20T23:39:12.962Z,1.30
2019-01-20T23:41:44.730Z,1.40
2019-01-20T23:44:16.655Z,1.10
2019-01-20T23:46:45.988Z,1.13
2019-01-20T23:49:16.455Z,1.30
2019-01-20T23:51:45.768Z,1.50
2019-01-20T23:54:15.197Z,1.07
2019-01-20T23:56:44.461Z,1.07
2019-01-20T23:59:13.927Z,1.23
